sensor_id;sensor_type;location;lat;lon;timestamp;P1;durP1;ratioP1;P2;durP2;ratioP2
78368;SDS011;71113;43.092;-89.268;2023-07-29T00:00:52;3.97;;;1.88;;
78368;SDS011;71113;43.092;-89.268;2023-07-29T00:03:18;4.20;;;2.10;;
78368;SDS011;71113;43.092;-89.268;2023-07-29T00:05:44;4.85;;;1.98;;
78368;SDS011;71113;43.092;-89.268;2023-07-29T00:08:10;4.28;;;2.00;;
78368;SDS011;71113;43.092;-89.268;2023-07-29T00:10:36;4.28;;;2.25;;
78368;SDS011;71113;43.092;-89.268;2023-07-29T00:13:03;3.63;;;1.83;;
78368;SDS011;71113;43.092;-89.268;2023-07-29T00:15:29;4.60;;;1.95;;
78368;SDS011;71113;43.092;-89.268;2023-07-29T00:17:55;3.90;;;1.70;;
78368;SDS011;71113;43.092;-89.268;2023-07-29T00:20:21;4.72;;;2.22;;
78368;SDS011;71113;43.092;-89.268;2023-07-29T00:22:47;3.38;;;1.73;;
78368;SDS011;71113;43.092;-89.268;2023-07-29T00:25:15;3.40;;;1.60;;
78368;SDS011;71113;43.092;-89.268;2023-07-29T00:27:42;3.00;;;1.58;;
78368;SDS011;71113;43.092;-89.268;2023-07-29T00:30:08;3.88;;;1.98;;
78368;SDS011;71113;43.092;-89.268;2023-07-29T00:32:34;4.30;;;1.80;;
78368;SDS011;71113;43.092;-89.268;2023-07-29T00:35:01;3.55;;;1.60;;
78368;SDS011;71113;43.092;-89.268;2023-07-29T00:37:27;4.32;;;1.58;;
78368;SDS011;71113;43.092;-89.268;2023-07-29T00:39:53;2.90;;;1.48;;
78368;SDS011;71113;43.092;-89.268;2023-07-29T00:42:19;4.13;;;1.30;;
78368;SDS011;71113;43.092;-89.268;2023-07-29T00:44:45;3.40;;;1.40;;
78368;SDS011;71113;43.092;-89.268;2023-07-29T00:47:11;3.50;;;1.48;;
78368;SDS011;71113;43.092;-89.268;2023-07-29T00:49:40;2.90;;;1.40;;
78368;SDS011;71113;43.092;-89.268;2023-07-29T00:52:06;2.33;;;1.27;;
78368;SDS011;71113;43.092;-89.268;2023-07-29T00:54:32;3.38;;;1.35;;
78368;SDS011;71113;43.092;-89.268;2023-07-29T00:56:58;2.42;;;1.50;;
78368;SDS011;71113;43.092;-89.268;2023-07-29T00:59:24;2.10;;;1.20;;
78368;SDS011;71113;43.092;-89.268;2023-07-29T01:01:53;2.47;;;1.20;;
78368;SDS011;71113;43.092;-89.268;2023-07-29T01:04:19;2.80;;;1.20;;
78368;SDS011;71113;43.092;-89.268;2023-07-29T01:06:58;2.63;;;1.40;;
78368;SDS011;71113;43.092;-89.268;2023-07-29T01:17:13;2.70;;;1.33;;
78368;SDS011;71113;43.092;-89.268;2023-07-29T01:20:00;2.70;;;1.23;;
78368;SDS011;71113;43.092;-89.268;2023-07-29T01:22:36;1.75;;;1.00;;
78368;SDS011;71113;43.092;-89.268;2023-07-29T01:27:29;2.65;;;1.20;;
78368;SDS011;71113;43.092;-89.268;2023-07-29T01:29:56;2.15;;;1.15;;
78368;SDS011;71113;43.092;-89.268;2023-07-29T01:32:25;1.63;;;0.95;;
78368;SDS011;71113;43.092;-89.268;2023-07-29T01:34:55;2.75;;;1.20;;
78368;SDS011;71113;43.092;-89.268;2023-07-29T01:37:27;2.63;;;1.40;;
78368;SDS011;71113;43.092;-89.268;2023-07-29T01:39:58;2.00;;;1.13;;
78368;SDS011;71113;43.092;-89.268;2023-07-29T01:42:25;2.25;;;1.05;;
78368;SDS011;71113;43.092;-89.268;2023-07-29T01:44:52;2.00;;;1.00;;
78368;SDS011;71113;43.092;-89.268;2023-07-29T01:47:18;2.08;;;1.20;;
78368;SDS011;71113;43.092;-89.268;2023-07-29T01:49:44;1.67;;;1.00;;
78368;SDS011;71113;43.092;-89.268;2023-07-29T01:52:10;1.80;;;1.08;;
78368;SDS011;71113;43.092;-89.268;2023-07-29T01:54:36;1.70;;;1.00;;
78368;SDS011;71113;43.092;-89.268;2023-07-29T01:57:02;2.05;;;1.15;;
78368;SDS011;71113;43.092;-89.268;2023-07-29T01:59:28;1.92;;;1.02;;
78368;SDS011;71113;43.092;-89.268;2023-07-29T02:01:54;2.00;;;1.30;;
78368;SDS011;71113;43.092;-89.268;2023-07-29T02:04:20;1.88;;;1.02;;
78368;SDS011;71113;43.092;-89.268;2023-07-29T02:06:45;2.08;;;1.10;;
78368;SDS011;71113;43.092;-89.268;2023-07-29T02:09:11;1.92;;;1.00;;
78368;SDS011;71113;43.092;-89.268;2023-07-29T02:11:37;1.27;;;0.70;;
78368;SDS011;71113;43.092;-89.268;2023-07-29T02:14:03;1.75;;;0.95;;
78368;SDS011;71113;43.092;-89.268;2023-07-29T02:16:29;1.60;;;1.00;;
78368;SDS011;71113;43.092;-89.268;2023-07-29T02:18:55;1.88;;;1.00;;
78368;SDS011;71113;43.092;-89.268;2023-07-29T02:21:21;1.48;;;0.90;;
78368;SDS011;71113;43.092;-89.268;2023-07-29T02:23:47;2.05;;;1.10;;
78368;SDS011;71113;43.092;-89.268;2023-07-29T02:26:13;1.80;;;0.80;;
78368;SDS011;71113;43.092;-89.268;2023-07-29T02:28:39;1.30;;;0.90;;
78368;SDS011;71113;43.092;-89.268;2023-07-29T02:33:49;1.13;;;0.70;;
78368;SDS011;71113;43.092;-89.268;2023-07-29T02:36:16;1.92;;;0.90;;
78368;SDS011;71113;43.092;-89.268;2023-07-29T02:38:42;1.50;;;0.80;;
78368;SDS011;71113;43.092;-89.268;2023-07-29T02:41:09;1.55;;;0.90;;
78368;SDS011;71113;43.092;-89.268;2023-07-29T02:43:37;1.70;;;1.00;;
78368;SDS011;71113;43.092;-89.268;2023-07-29T02:46:03;1.10;;;0.63;;
78368;SDS011;71113;43.092;-89.268;2023-07-29T02:48:29;1.35;;;0.85;;
78368;SDS011;71113;43.092;-89.268;2023-07-29T02:50:56;0.88;;;0.60;;
78368;SDS011;71113;43.092;-89.268;2023-07-29T02:53:22;1.20;;;0.70;;
78368;SDS011;71113;43.092;-89.268;2023-07-29T02:55:48;2.35;;;0.90;;
78368;SDS011;71113;43.092;-89.268;2023-07-29T02:58:14;1.05;;;0.57;;
78368;SDS011;71113;43.092;-89.268;2023-07-29T03:00:40;3.80;;;0.82;;
78368;SDS011;71113;43.092;-89.268;2023-07-29T03:03:10;0.80;;;0.52;;
78368;SDS011;71113;43.092;-89.268;2023-07-29T03:05:36;1.48;;;0.65;;
78368;SDS011;71113;43.092;-89.268;2023-07-29T03:08:02;0.60;;;0.50;;
78368;SDS011;71113;43.092;-89.268;2023-07-29T03:10:28;0.95;;;0.80;;
78368;SDS011;71113;43.092;-89.268;2023-07-29T03:12:55;1.13;;;0.70;;
78368;SDS011;71113;43.092;-89.268;2023-07-29T03:15:24;1.25;;;0.77;;
78368;SDS011;71113;43.092;-89.268;2023-07-29T03:17:51;1.20;;;0.70;;
78368;SDS011;71113;43.092;-89.268;2023-07-29T03:20:18;0.65;;;0.43;;
78368;SDS011;71113;43.092;-89.268;2023-07-29T03:22:44;1.42;;;0.70;;
78368;SDS011;71113;43.092;-89.268;2023-07-29T03:25:10;0.55;;;0.40;;
78368;SDS011;71113;43.092;-89.268;2023-07-29T03:27:36;0.90;;;0.65;;
78368;SDS011;71113;43.092;-89.268;2023-07-29T03:30:06;0.75;;;0.60;;
78368;SDS011;71113;43.092;-89.268;2023-07-29T03:32:32;0.95;;;0.65;;
78368;SDS011;71113;43.092;-89.268;2023-07-29T03:34:58;1.38;;;0.63;;
78368;SDS011;71113;43.092;-89.268;2023-07-29T03:37:24;0.95;;;0.50;;
78368;SDS011;71113;43.092;-89.268;2023-07-29T03:39:50;1.08;;;0.70;;
78368;SDS011;71113;43.092;-89.268;2023-07-29T03:42:19;1.42;;;0.45;;
78368;SDS011;71113;43.092;-89.268;2023-07-29T03:44:45;0.65;;;0.45;;
78368;SDS011;71113;43.092;-89.268;2023-07-29T03:47:11;1.92;;;0.60;;
78368;SDS011;71113;43.092;-89.268;2023-07-29T03:49:37;0.55;;;0.40;;
78368;SDS011;71113;43.092;-89.268;2023-07-29T03:52:03;0.85;;;0.60;;
78368;SDS011;71113;43.092;-89.268;2023-07-29T03:54:29;1.23;;;0.52;;
78368;SDS011;71113;43.092;-89.268;2023-07-29T03:56:55;0.45;;;0.40;;
78368;SDS011;71113;43.092;-89.268;2023-07-29T03:59:21;0.68;;;0.55;;
78368;SDS011;71113;43.092;-89.268;2023-07-29T04:01:48;1.00;;;0.70;;
78368;SDS011;71113;43.092;-89.268;2023-07-29T04:04:14;0.50;;;0.47;;
78368;SDS011;71113;43.092;-89.268;2023-07-29T04:06:39;0.60;;;0.50;;
78368;SDS011;71113;43.092;-89.268;2023-07-29T04:09:05;0.75;;;0.60;;
78368;SDS011;71113;43.092;-89.268;2023-07-29T04:11:31;0.50;;;0.40;;
78368;SDS011;71113;43.092;-89.268;2023-07-29T04:13:57;0.40;;;0.40;;
78368;SDS011;71113;43.092;-89.268;2023-07-29T04:16:23;0.38;;;0.38;;
78368;SDS011;71113;43.092;-89.268;2023-07-29T04:18:49;3.30;;;1.00;;
78368;SDS011;71113;43.092;-89.268;2023-07-29T04:21:15;0.77;;;0.40;;
78368;SDS011;71113;43.092;-89.268;2023-07-29T04:23:41;0.55;;;0.47;;
78368;SDS011;71113;43.092;-89.268;2023-07-29T04:26:06;0.45;;;0.30;;
78368;SDS011;71113;43.092;-89.268;2023-07-29T04:28:32;0.47;;;0.45;;
78368;SDS011;71113;43.092;-89.268;2023-07-29T04:30:58;0.43;;;0.40;;
78368;SDS011;71113;43.092;-89.268;2023-07-29T04:33:25;0.82;;;0.70;;
78368;SDS011;71113;43.092;-89.268;2023-07-29T04:35:50;0.43;;;0.40;;
78368;SDS011;71113;43.092;-89.268;2023-07-29T04:38:16;0.52;;;0.40;;
78368;SDS011;71113;43.092;-89.268;2023-07-29T04:40:42;0.52;;;0.43;;
78368;SDS011;71113;43.092;-89.268;2023-07-29T04:43:08;0.35;;;0.32;;
78368;SDS011;71113;43.092;-89.268;2023-07-29T04:45:34;0.35;;;0.30;;
78368;SDS011;71113;43.092;-89.268;2023-07-29T04:48:00;0.28;;;0.28;;
78368;SDS011;71113;43.092;-89.268;2023-07-29T04:50:26;0.30;;;0.30;;
78368;SDS011;71113;43.092;-89.268;2023-07-29T04:52:51;0.40;;;0.40;;
78368;SDS011;71113;43.092;-89.268;2023-07-29T04:55:18;0.15;;;0.15;;
78368;SDS011;71113;43.092;-89.268;2023-07-29T04:57:44;0.32;;;0.32;;
78368;SDS011;71113;43.092;-89.268;2023-07-29T05:00:10;0.30;;;0.30;;
78368;SDS011;71113;43.092;-89.268;2023-07-29T05:02:36;0.63;;;0.47;;
78368;SDS011;71113;43.092;-89.268;2023-07-29T05:05:02;0.40;;;0.30;;
78368;SDS011;71113;43.092;-89.268;2023-07-29T05:07:28;0.30;;;0.30;;
78368;SDS011;71113;43.092;-89.268;2023-07-29T05:09:54;0.45;;;0.45;;
78368;SDS011;71113;43.092;-89.268;2023-07-29T05:12:20;0.70;;;0.70;;
78368;SDS011;71113;43.092;-89.268;2023-07-29T05:14:46;0.85;;;0.47;;
78368;SDS011;71113;43.092;-89.268;2023-07-29T05:17:13;0.50;;;0.40;;
78368;SDS011;71113;43.092;-89.268;2023-07-29T05:19:39;0.30;;;0.30;;
78368;SDS011;71113;43.092;-89.268;2023-07-29T05:22:05;0.20;;;0.20;;
78368;SDS011;71113;43.092;-89.268;2023-07-29T05:24:31;0.40;;;0.40;;
78368;SDS011;71113;43.092;-89.268;2023-07-29T05:26:56;0.40;;;0.40;;
78368;SDS011;71113;43.092;-89.268;2023-07-29T05:29:22;0.30;;;0.30;;
78368;SDS011;71113;43.092;-89.268;2023-07-29T05:31:48;0.28;;;0.20;;
78368;SDS011;71113;43.092;-89.268;2023-07-29T05:34:14;0.20;;;0.20;;
78368;SDS011;71113;43.092;-89.268;2023-07-29T05:36:40;0.30;;;0.30;;
78368;SDS011;71113;43.092;-89.268;2023-07-29T05:39:06;0.20;;;0.20;;
78368;SDS011;71113;43.092;-89.268;2023-07-29T05:41:32;0.28;;;0.28;;
78368;SDS011;71113;43.092;-89.268;2023-07-29T05:43:58;0.32;;;0.30;;
78368;SDS011;71113;43.092;-89.268;2023-07-29T05:46:24;0.30;;;0.30;;
78368;SDS011;71113;43.092;-89.268;2023-07-29T05:48:50;0.77;;;0.77;;
78368;SDS011;71113;43.092;-89.268;2023-07-29T05:51:16;0.45;;;0.45;;
78368;SDS011;71113;43.092;-89.268;2023-07-29T05:53:41;0.20;;;0.20;;
78368;SDS011;71113;43.092;-89.268;2023-07-29T05:56:07;0.30;;;0.30;;
78368;SDS011;71113;43.092;-89.268;2023-07-29T05:58:35;0.30;;;0.30;;
78368;SDS011;71113;43.092;-89.268;2023-07-29T06:01:01;0.47;;;0.20;;
78368;SDS011;71113;43.092;-89.268;2023-07-29T06:03:27;0.32;;;0.30;;
78368;SDS011;71113;43.092;-89.268;2023-07-29T06:05:53;0.25;;;0.25;;
78368;SDS011;71113;43.092;-89.268;2023-07-29T06:08:19;0.73;;;0.73;;
78368;SDS011;71113;43.092;-89.268;2023-07-29T06:10:45;0.30;;;0.30;;
78368;SDS011;71113;43.092;-89.268;2023-07-29T06:13:11;0.35;;;0.30;;
78368;SDS011;71113;43.092;-89.268;2023-07-29T06:15:37;0.10;;;0.10;;
78368;SDS011;71113;43.092;-89.268;2023-07-29T06:18:03;0.40;;;0.25;;
78368;SDS011;71113;43.092;-89.268;2023-07-29T06:20:29;0.32;;;0.32;;
78368;SDS011;71113;43.092;-89.268;2023-07-29T06:22:55;0.30;;;0.30;;
78368;SDS011;71113;43.092;-89.268;2023-07-29T06:25:21;0.30;;;0.30;;
78368;SDS011;71113;43.092;-89.268;2023-07-29T06:27:47;0.30;;;0.30;;
78368;SDS011;71113;43.092;-89.268;2023-07-29T06:30:13;0.20;;;0.20;;
78368;SDS011;71113;43.092;-89.268;2023-07-29T06:32:39;0.40;;;0.40;;
78368;SDS011;71113;43.092;-89.268;2023-07-29T06:35:05;0.22;;;0.20;;
78368;SDS011;71113;43.092;-89.268;2023-07-29T06:37:31;0.38;;;0.38;;
78368;SDS011;71113;43.092;-89.268;2023-07-29T06:39:58;0.20;;;0.20;;
78368;SDS011;71113;43.092;-89.268;2023-07-29T06:42:24;0.20;;;0.20;;
78368;SDS011;71113;43.092;-89.268;2023-07-29T06:44:50;0.20;;;0.20;;
78368;SDS011;71113;43.092;-89.268;2023-07-29T06:47:16;0.20;;;0.20;;
78368;SDS011;71113;43.092;-89.268;2023-07-29T06:49:48;0.28;;;0.28;;
78368;SDS011;71113;43.092;-89.268;2023-07-29T06:52:14;0.30;;;0.30;;
78368;SDS011;71113;43.092;-89.268;2023-07-29T06:54:40;0.30;;;0.30;;
78368;SDS011;71113;43.092;-89.268;2023-07-29T06:57:06;0.20;;;0.20;;
78368;SDS011;71113;43.092;-89.268;2023-07-29T06:59:32;0.93;;;0.30;;
78368;SDS011;71113;43.092;-89.268;2023-07-29T07:01:58;0.47;;;0.47;;
78368;SDS011;71113;43.092;-89.268;2023-07-29T07:04:25;0.30;;;0.30;;
78368;SDS011;71113;43.092;-89.268;2023-07-29T07:06:51;0.30;;;0.28;;
78368;SDS011;71113;43.092;-89.268;2023-07-29T07:09:17;0.30;;;0.30;;
78368;SDS011;71113;43.092;-89.268;2023-07-29T07:11:43;0.30;;;0.30;;
78368;SDS011;71113;43.092;-89.268;2023-07-29T07:14:08;0.45;;;0.40;;
78368;SDS011;71113;43.092;-89.268;2023-07-29T07:16:34;0.43;;;0.32;;
78368;SDS011;71113;43.092;-89.268;2023-07-29T07:19:02;0.10;;;0.10;;
78368;SDS011;71113;43.092;-89.268;2023-07-29T07:21:28;0.70;;;0.70;;
78368;SDS011;71113;43.092;-89.268;2023-07-29T07:23:54;0.57;;;0.20;;
78368;SDS011;71113;43.092;-89.268;2023-07-29T07:26:20;0.47;;;0.20;;
78368;SDS011;71113;43.092;-89.268;2023-07-29T07:28:46;0.10;;;0.10;;
78368;SDS011;71113;43.092;-89.268;2023-07-29T07:31:12;0.30;;;0.20;;
78368;SDS011;71113;43.092;-89.268;2023-07-29T07:33:37;0.20;;;0.20;;
78368;SDS011;71113;43.092;-89.268;2023-07-29T07:36:03;0.30;;;0.25;;
78368;SDS011;71113;43.092;-89.268;2023-07-29T07:38:29;0.20;;;0.20;;
78368;SDS011;71113;43.092;-89.268;2023-07-29T07:40:55;0.30;;;0.20;;
78368;SDS011;71113;43.092;-89.268;2023-07-29T07:43:22;0.40;;;0.40;;
78368;SDS011;71113;43.092;-89.268;2023-07-29T07:45:49;0.40;;;0.30;;
78368;SDS011;71113;43.092;-89.268;2023-07-29T07:48:21;0.30;;;0.30;;
78368;SDS011;71113;43.092;-89.268;2023-07-29T07:50:47;0.20;;;0.20;;
78368;SDS011;71113;43.092;-89.268;2023-07-29T07:53:13;0.20;;;0.20;;
78368;SDS011;71113;43.092;-89.268;2023-07-29T07:55:39;0.30;;;0.30;;
78368;SDS011;71113;43.092;-89.268;2023-07-29T07:58:04;0.20;;;0.20;;
78368;SDS011;71113;43.092;-89.268;2023-07-29T08:00:30;0.30;;;0.30;;
78368;SDS011;71113;43.092;-89.268;2023-07-29T08:02:56;0.40;;;0.40;;
78368;SDS011;71113;43.092;-89.268;2023-07-29T08:05:22;0.10;;;0.10;;
78368;SDS011;71113;43.092;-89.268;2023-07-29T08:07:48;0.30;;;0.30;;
78368;SDS011;71113;43.092;-89.268;2023-07-29T08:10:14;0.47;;;0.30;;
78368;SDS011;71113;43.092;-89.268;2023-07-29T08:12:40;0.38;;;0.35;;
78368;SDS011;71113;43.092;-89.268;2023-07-29T08:15:06;0.17;;;0.17;;
78368;SDS011;71113;43.092;-89.268;2023-07-29T08:17:32;0.05;;;0.05;;
78368;SDS011;71113;43.092;-89.268;2023-07-29T08:19:58;0.20;;;0.20;;
78368;SDS011;71113;43.092;-89.268;2023-07-29T08:22:24;0.30;;;0.30;;
78368;SDS011;71113;43.092;-89.268;2023-07-29T08:24:50;0.20;;;0.20;;
78368;SDS011;71113;43.092;-89.268;2023-07-29T08:27:16;0.20;;;0.20;;
78368;SDS011;71113;43.092;-89.268;2023-07-29T08:29:42;0.10;;;0.10;;
78368;SDS011;71113;43.092;-89.268;2023-07-29T08:32:08;0.20;;;0.20;;
78368;SDS011;71113;43.092;-89.268;2023-07-29T08:34:34;0.20;;;0.20;;
78368;SDS011;71113;43.092;-89.268;2023-07-29T08:37:01;0.20;;;0.20;;
78368;SDS011;71113;43.092;-89.268;2023-07-29T08:39:27;0.10;;;0.10;;
78368;SDS011;71113;43.092;-89.268;2023-07-29T08:42:05;0.30;;;0.30;;
78368;SDS011;71113;43.092;-89.268;2023-07-29T08:44:40;0.32;;;0.32;;
78368;SDS011;71113;43.092;-89.268;2023-07-29T08:47:07;0.20;;;0.20;;
78368;SDS011;71113;43.092;-89.268;2023-07-29T08:49:33;0.20;;;0.20;;
78368;SDS011;71113;43.092;-89.268;2023-07-29T08:52:01;0.20;;;0.20;;
78368;SDS011;71113;43.092;-89.268;2023-07-29T08:54:27;0.30;;;0.30;;
78368;SDS011;71113;43.092;-89.268;2023-07-29T08:56:53;0.20;;;0.20;;
78368;SDS011;71113;43.092;-89.268;2023-07-29T08:59:20;0.13;;;0.13;;
78368;SDS011;71113;43.092;-89.268;2023-07-29T09:01:47;0.30;;;0.30;;
78368;SDS011;71113;43.092;-89.268;2023-07-29T09:04:13;0.20;;;0.20;;
78368;SDS011;71113;43.092;-89.268;2023-07-29T09:06:39;0.13;;;0.13;;
78368;SDS011;71113;43.092;-89.268;2023-07-29T09:09:07;0.20;;;0.20;;
78368;SDS011;71113;43.092;-89.268;2023-07-29T09:11:34;0.20;;;0.20;;
78368;SDS011;71113;43.092;-89.268;2023-07-29T09:14:00;0.25;;;0.25;;
78368;SDS011;71113;43.092;-89.268;2023-07-29T09:16:26;0.20;;;0.20;;
78368;SDS011;71113;43.092;-89.268;2023-07-29T09:18:52;0.10;;;0.10;;
78368;SDS011;71113;43.092;-89.268;2023-07-29T09:21:24;0.20;;;0.20;;
78368;SDS011;71113;43.092;-89.268;2023-07-29T09:23:52;0.40;;;0.30;;
78368;SDS011;71113;43.092;-89.268;2023-07-29T09:26:27;0.20;;;0.20;;
78368;SDS011;71113;43.092;-89.268;2023-07-29T09:28:54;0.20;;;0.20;;
78368;SDS011;71113;43.092;-89.268;2023-07-29T09:31:28;0.40;;;0.25;;
78368;SDS011;71113;43.092;-89.268;2023-07-29T09:34:01;0.30;;;0.30;;
78368;SDS011;71113;43.092;-89.268;2023-07-29T09:36:32;0.30;;;0.30;;
78368;SDS011;71113;43.092;-89.268;2023-07-29T09:38:59;0.20;;;0.20;;
78368;SDS011;71113;43.092;-89.268;2023-07-29T09:41:26;0.22;;;0.22;;
78368;SDS011;71113;43.092;-89.268;2023-07-29T09:43:59;0.25;;;0.25;;
78368;SDS011;71113;43.092;-89.268;2023-07-29T09:46:34;0.30;;;0.30;;
78368;SDS011;71113;43.092;-89.268;2023-07-29T09:49:04;0.25;;;0.25;;
78368;SDS011;71113;43.092;-89.268;2023-07-29T09:51:31;0.30;;;0.30;;
78368;SDS011;71113;43.092;-89.268;2023-07-29T09:53:57;0.30;;;0.30;;
78368;SDS011;71113;43.092;-89.268;2023-07-29T09:56:26;0.20;;;0.20;;
78368;SDS011;71113;43.092;-89.268;2023-07-29T09:58:52;0.20;;;0.20;;
78368;SDS011;71113;43.092;-89.268;2023-07-29T10:01:20;0.47;;;0.47;;
78368;SDS011;71113;43.092;-89.268;2023-07-29T10:03:46;0.20;;;0.20;;
78368;SDS011;71113;43.092;-89.268;2023-07-29T10:06:34;0.30;;;0.30;;
78368;SDS011;71113;43.092;-89.268;2023-07-29T10:09:00;0.38;;;0.20;;
78368;SDS011;71113;43.092;-89.268;2023-07-29T10:11:26;0.40;;;0.40;;
78368;SDS011;71113;43.092;-89.268;2023-07-29T10:13:53;0.25;;;0.25;;
78368;SDS011;71113;43.092;-89.268;2023-07-29T10:16:19;0.40;;;0.30;;
78368;SDS011;71113;43.092;-89.268;2023-07-29T10:18:46;0.20;;;0.20;;
78368;SDS011;71113;43.092;-89.268;2023-07-29T10:21:12;0.20;;;0.20;;
78368;SDS011;71113;43.092;-89.268;2023-07-29T10:23:42;0.20;;;0.20;;
78368;SDS011;71113;43.092;-89.268;2023-07-29T10:26:14;0.52;;;0.40;;
78368;SDS011;71113;43.092;-89.268;2023-07-29T10:28:52;0.65;;;0.65;;
78368;SDS011;71113;43.092;-89.268;2023-07-29T10:31:21;0.22;;;0.22;;
78368;SDS011;71113;43.092;-89.268;2023-07-29T10:33:48;0.28;;;0.28;;
78368;SDS011;71113;43.092;-89.268;2023-07-29T10:36:15;0.55;;;0.40;;
78368;SDS011;71113;43.092;-89.268;2023-07-29T10:38:41;0.20;;;0.20;;
78368;SDS011;71113;43.092;-89.268;2023-07-29T10:41:07;0.30;;;0.30;;
78368;SDS011;71113;43.092;-89.268;2023-07-29T10:43:34;0.32;;;0.32;;
78368;SDS011;71113;43.092;-89.268;2023-07-29T10:46:19;0.35;;;0.32;;
78368;SDS011;71113;43.092;-89.268;2023-07-29T10:48:53;0.10;;;0.10;;
78368;SDS011;71113;43.092;-89.268;2023-07-29T10:51:23;0.30;;;0.30;;
78368;SDS011;71113;43.092;-89.268;2023-07-29T10:56:35;0.20;;;0.20;;
78368;SDS011;71113;43.092;-89.268;2023-07-29T10:59:53;0.30;;;0.30;;
78368;SDS011;71113;43.092;-89.268;2023-07-29T11:01:59;0.50;;;0.40;;
78368;SDS011;71113;43.092;-89.268;2023-07-29T11:04:29;0.30;;;0.30;;
78368;SDS011;71113;43.092;-89.268;2023-07-29T11:17:43;0.30;;;0.30;;
78368;SDS011;71113;43.092;-89.268;2023-07-29T11:20:11;0.38;;;0.35;;
78368;SDS011;71113;43.092;-89.268;2023-07-29T11:22:38;0.20;;;0.20;;
78368;SDS011;71113;43.092;-89.268;2023-07-29T11:25:04;0.30;;;0.30;;
78368;SDS011;71113;43.092;-89.268;2023-07-29T11:27:32;0.30;;;0.30;;
78368;SDS011;71113;43.092;-89.268;2023-07-29T11:30:01;0.30;;;0.30;;
78368;SDS011;71113;43.092;-89.268;2023-07-29T11:32:30;0.20;;;0.20;;
78368;SDS011;71113;43.092;-89.268;2023-07-29T11:35:01;0.22;;;0.20;;
78368;SDS011;71113;43.092;-89.268;2023-07-29T11:37:28;0.28;;;0.28;;
78368;SDS011;71113;43.092;-89.268;2023-07-29T11:39:54;0.28;;;0.28;;
78368;SDS011;71113;43.092;-89.268;2023-07-29T11:42:19;0.30;;;0.30;;
78368;SDS011;71113;43.092;-89.268;2023-07-29T11:44:45;0.20;;;0.20;;
78368;SDS011;71113;43.092;-89.268;2023-07-29T11:47:12;0.43;;;0.32;;
78368;SDS011;71113;43.092;-89.268;2023-07-29T11:49:38;0.22;;;0.22;;
78368;SDS011;71113;43.092;-89.268;2023-07-29T11:52:05;0.28;;;0.28;;
78368;SDS011;71113;43.092;-89.268;2023-07-29T11:54:35;0.25;;;0.25;;
78368;SDS011;71113;43.092;-89.268;2023-07-29T11:57:08;0.60;;;0.60;;
78368;SDS011;71113;43.092;-89.268;2023-07-29T11:59:35;0.10;;;0.10;;
78368;SDS011;71113;43.092;-89.268;2023-07-29T12:02:02;0.30;;;0.30;;
78368;SDS011;71113;43.092;-89.268;2023-07-29T12:04:33;0.30;;;0.30;;
78368;SDS011;71113;43.092;-89.268;2023-07-29T12:07:00;0.77;;;0.77;;
78368;SDS011;71113;43.092;-89.268;2023-07-29T12:09:27;0.30;;;0.30;;
78368;SDS011;71113;43.092;-89.268;2023-07-29T12:11:54;0.30;;;0.30;;
78368;SDS011;71113;43.092;-89.268;2023-07-29T12:14:20;0.30;;;0.30;;
78368;SDS011;71113;43.092;-89.268;2023-07-29T12:16:50;0.30;;;0.30;;
78368;SDS011;71113;43.092;-89.268;2023-07-29T12:19:18;0.30;;;0.30;;
78368;SDS011;71113;43.092;-89.268;2023-07-29T12:21:44;0.22;;;0.22;;
78368;SDS011;71113;43.092;-89.268;2023-07-29T12:24:13;1.98;;;0.50;;
78368;SDS011;71113;43.092;-89.268;2023-07-29T12:26:42;0.65;;;0.43;;
78368;SDS011;71113;43.092;-89.268;2023-07-29T12:29:11;0.60;;;0.57;;
78368;SDS011;71113;43.092;-89.268;2023-07-29T12:31:41;0.82;;;0.50;;
78368;SDS011;71113;43.092;-89.268;2023-07-29T12:34:07;0.47;;;0.47;;
78368;SDS011;71113;43.092;-89.268;2023-07-29T12:36:41;0.70;;;0.50;;
78368;SDS011;71113;43.092;-89.268;2023-07-29T12:39:28;1.92;;;0.50;;
78368;SDS011;71113;43.092;-89.268;2023-07-29T12:41:56;1.00;;;0.60;;
78368;SDS011;71113;43.092;-89.268;2023-07-29T12:44:30;1.10;;;0.50;;
78368;SDS011;71113;43.092;-89.268;2023-07-29T12:46:57;0.45;;;0.43;;
78368;SDS011;71113;43.092;-89.268;2023-07-29T12:49:24;1.38;;;0.50;;
78368;SDS011;71113;43.092;-89.268;2023-07-29T12:51:50;0.63;;;0.40;;
78368;SDS011;71113;43.092;-89.268;2023-07-29T12:54:16;1.15;;;0.50;;
78368;SDS011;71113;43.092;-89.268;2023-07-29T12:56:42;0.50;;;0.50;;
78368;SDS011;71113;43.092;-89.268;2023-07-29T12:59:07;0.43;;;0.32;;
78368;SDS011;71113;43.092;-89.268;2023-07-29T13:01:33;0.60;;;0.32;;
78368;SDS011;71113;43.092;-89.268;2023-07-29T13:03:59;0.73;;;0.50;;
78368;SDS011;71113;43.092;-89.268;2023-07-29T13:06:25;0.75;;;0.52;;
78368;SDS011;71113;43.092;-89.268;2023-07-29T13:08:51;0.60;;;0.50;;
78368;SDS011;71113;43.092;-89.268;2023-07-29T13:11:17;2.42;;;0.43;;
78368;SDS011;71113;43.092;-89.268;2023-07-29T13:13:43;1.13;;;0.70;;
78368;SDS011;71113;43.092;-89.268;2023-07-29T13:16:10;2.75;;;0.70;;
78368;SDS011;71113;43.092;-89.268;2023-07-29T13:18:37;1.65;;;0.50;;
78368;SDS011;71113;43.092;-89.268;2023-07-29T13:21:03;1.55;;;0.55;;
78368;SDS011;71113;43.092;-89.268;2023-07-29T13:23:29;1.27;;;0.50;;
78368;SDS011;71113;43.092;-89.268;2023-07-29T13:25:55;0.90;;;0.40;;
78368;SDS011;71113;43.092;-89.268;2023-07-29T13:28:22;0.65;;;0.47;;
78368;SDS011;71113;43.092;-89.268;2023-07-29T13:30:48;3.50;;;0.55;;
78368;SDS011;71113;43.092;-89.268;2023-07-29T13:33:14;0.35;;;0.35;;
78368;SDS011;71113;43.092;-89.268;2023-07-29T13:35:40;1.38;;;0.68;;
78368;SDS011;71113;43.092;-89.268;2023-07-29T13:38:06;2.20;;;0.50;;
78368;SDS011;71113;43.092;-89.268;2023-07-29T13:40:32;0.55;;;0.40;;
78368;SDS011;71113;43.092;-89.268;2023-07-29T13:42:58;1.27;;;0.30;;
78368;SDS011;71113;43.092;-89.268;2023-07-29T13:45:24;0.63;;;0.40;;
78368;SDS011;71113;43.092;-89.268;2023-07-29T13:47:49;1.73;;;0.63;;
78368;SDS011;71113;43.092;-89.268;2023-07-29T13:50:16;0.88;;;0.45;;
78368;SDS011;71113;43.092;-89.268;2023-07-29T13:52:43;2.47;;;0.50;;
78368;SDS011;71113;43.092;-89.268;2023-07-29T13:55:09;0.98;;;0.50;;
78368;SDS011;71113;43.092;-89.268;2023-07-29T13:57:36;0.73;;;0.45;;
78368;SDS011;71113;43.092;-89.268;2023-07-29T14:00:04;0.40;;;0.40;;
78368;SDS011;71113;43.092;-89.268;2023-07-29T14:02:30;0.20;;;0.20;;
78368;SDS011;71113;43.092;-89.268;2023-07-29T14:04:56;0.88;;;0.52;;
78368;SDS011;71113;43.092;-89.268;2023-07-29T14:07:22;1.00;;;0.70;;
78368;SDS011;71113;43.092;-89.268;2023-07-29T14:09:48;2.88;;;0.60;;
78368;SDS011;71113;43.092;-89.268;2023-07-29T14:12:14;0.50;;;0.45;;
78368;SDS011;71113;43.092;-89.268;2023-07-29T14:14:41;1.35;;;0.60;;
78368;SDS011;71113;43.092;-89.268;2023-07-29T14:17:07;1.35;;;0.63;;
78368;SDS011;71113;43.092;-89.268;2023-07-29T14:19:35;1.15;;;0.40;;
78368;SDS011;71113;43.092;-89.268;2023-07-29T14:22:01;1.02;;;0.55;;
78368;SDS011;71113;43.092;-89.268;2023-07-29T14:24:27;1.20;;;0.40;;
78368;SDS011;71113;43.092;-89.268;2023-07-29T14:26:53;1.17;;;0.40;;
78368;SDS011;71113;43.092;-89.268;2023-07-29T14:29:19;1.55;;;0.55;;
78368;SDS011;71113;43.092;-89.268;2023-07-29T14:31:45;0.68;;;0.40;;
78368;SDS011;71113;43.092;-89.268;2023-07-29T14:34:11;0.57;;;0.52;;
78368;SDS011;71113;43.092;-89.268;2023-07-29T14:36:36;1.08;;;0.52;;
78368;SDS011;71113;43.092;-89.268;2023-07-29T14:39:02;2.40;;;0.55;;
78368;SDS011;71113;43.092;-89.268;2023-07-29T14:41:29;0.95;;;0.63;;
78368;SDS011;71113;43.092;-89.268;2023-07-29T14:43:56;1.88;;;1.13;;
78368;SDS011;71113;43.092;-89.268;2023-07-29T14:46:22;1.13;;;0.50;;